sensor_id;sensor_type;location;lat;lon;timestamp;pressure;altitude;pressure_sealevel;temperature;humidity
13661;BME280;6903;49.480;11.102;2023-02-14T00:01:15;99862.94;;;2.61;100.00
13661;BME280;6903;49.480;11.102;2023-02-14T00:03:41;99862.84;;;2.66;100.00
13661;BME280;6903;49.480;11.102;2023-02-14T00:06:08;99866.31;;;2.68;100.00
13661;BME280;6903;49.480;11.102;2023-02-14T00:08:34;99861.13;;;2.66;100.00
13661;BME280;6903;49.480;11.102;2023-02-14T00:10:59;99863.63;;;2.71;100.00
13661;BME280;6903;49.480;11.102;2023-02-14T00:13:25;99871.47;;;2.69;100.00
13661;BME280;6903;49.480;11.102;2023-02-14T00:15:50;99863.63;;;2.71;100.00
13661;BME280;6903;49.480;11.102;2023-02-14T00:18:15;99860.97;;;2.74;100.00
13661;BME280;6903;49.480;11.102;2023-02-14T00:20:41;99854.88;;;2.76;100.00
13661;BME280;6903;49.480;11.102;2023-02-14T00:23:06;99855.72;;;2.78;100.00
13661;BME280;6903;49.480;11.102;2023-02-14T00:25:34;99855.69;;;2.80;100.00
13661;BME280;6903;49.480;11.102;2023-02-14T00:28:00;99859.19;;;2.77;100.00
13661;BME280;6903;49.480;11.102;2023-02-14T00:30:25;99861.69;;;2.82;100.00
13661;BME280;6903;49.480;11.102;2023-02-14T00:32:50;99872.94;;;2.84;100.00
13661;BME280;6903;49.480;11.102;2023-02-14T00:35:16;99869.47;;;2.85;100.00
13661;BME280;6903;49.480;11.102;2023-02-14T00:37:41;99863.31;;;2.89;100.00
13661;BME280;6903;49.480;11.102;2023-02-14T00:40:07;99859.81;;;2.90;100.00
13661;BME280;6903;49.480;11.102;2023-02-14T00:42:32;99861.56;;;2.91;100.00
13661;BME280;6903;49.480;11.102;2023-02-14T00:44:58;99871.13;;;2.89;100.00
13661;BME280;6903;49.480;11.102;2023-02-14T00:47:23;99863.25;;;2.92;100.00
13661;BME280;6903;49.480;11.102;2023-02-14T00:49:48;99873.69;;;2.90;100.00
13661;BME280;6903;49.480;11.102;2023-02-14T00:52:14;99872.84;;;2.92;100.00
13661;BME280;6903;49.480;11.102;2023-02-14T00:54:39;99873.78;;;2.86;100.00
13661;BME280;6903;49.480;11.102;2023-02-14T00:57:04;99877.25;;;2.88;100.00
13661;BME280;6903;49.480;11.102;2023-02-14T00:59:30;99872.91;;;2.87;100.00
13661;BME280;6903;49.480;11.102;2023-02-14T01:01:55;99871.13;;;2.89;100.00
13661;BME280;6903;49.480;11.102;2023-02-14T01:04:20;99866.88;;;2.83;100.00
13661;BME280;6903;49.480;11.102;2023-02-14T01:06:45;99859.91;;;2.85;100.00
13661;BME280;6903;49.480;11.102;2023-02-14T01:09:11;99866.75;;;2.91;100.00
13661;BME280;6903;49.480;11.102;2023-02-14T01:11:37;99869.41;;;2.89;100.00
13661;BME280;6903;49.480;11.102;2023-02-14T01:14:03;99870.22;;;2.90;100.00
13661;BME280;6903;49.480;11.102;2023-02-14T01:16:29;99869.34;;;2.92;100.00
13661;BME280;6903;49.480;11.102;2023-02-14T01:18:54;99859.63;;;3.01;100.00
13661;BME280;6903;49.480;11.102;2023-02-14T01:21:22;99862.31;;;2.96;100.00
13661;BME280;6903;49.480;11.102;2023-02-14T01:23:50;99867.56;;;2.95;100.00
13661;BME280;6903;49.480;11.102;2023-02-14T01:26:16;99868.59;;;2.86;100.00
13661;BME280;6903;49.480;11.102;2023-02-14T01:28:42;99872.88;;;2.88;100.00
13661;BME280;6903;49.480;11.102;2023-02-14T01:31:16;99870.34;;;2.84;100.00
13661;BME280;6903;49.480;11.102;2023-02-14T01:33:43;99871.28;;;2.81;100.00
13661;BME280;6903;49.480;11.102;2023-02-14T01:36:19;99870.50;;;2.76;100.00
13661;BME280;6903;49.480;11.102;2023-02-14T01:38:46;99876.56;;;2.77;100.00
13661;BME280;6903;49.480;11.102;2023-02-14T01:41:11;99879.16;;;2.78;100.00
13661;BME280;6903;49.480;11.102;2023-02-14T01:43:54;99873.00;;;2.81;100.00
13661;BME280;6903;49.480;11.102;2023-02-14T01:46:20;99867.75;;;2.84;100.00
13661;BME280;6903;49.480;11.102;2023-02-14T01:48:46;99868.50;;;2.90;100.00
13661;BME280;6903;49.480;11.102;2023-02-14T01:51:14;99873.75;;;2.89;100.00
13661;BME280;6903;49.480;11.102;2023-02-14T01:53:41;99872.22;;;2.76;100.00
13661;BME280;6903;49.480;11.102;2023-02-14T01:56:11;99865.47;;;2.66;100.00
13661;BME280;6903;49.480;11.102;2023-02-14T01:58:40;99875.78;;;2.72;100.00
13661;BME280;6903;49.480;11.102;2023-02-14T02:01:11;99862.06;;;2.64;100.00
13661;BME280;6903;49.480;11.102;2023-02-14T02:03:46;99862.84;;;2.66;100.00
13661;BME280;6903;49.480;11.102;2023-02-14T02:06:15;99870.66;;;2.66;100.00
13661;BME280;6903;49.480;11.102;2023-02-14T02:08:49;99868.88;;;2.69;100.00
13661;BME280;6903;49.480;11.102;2023-02-14T02:11:16;99864.47;;;2.73;100.00
13661;BME280;6903;49.480;11.102;2023-02-14T02:13:41;99868.84;;;2.71;100.00
13661;BME280;6903;49.480;11.102;2023-02-14T02:19:03;99858.44;;;2.71;100.00
13661;BME280;6903;49.480;11.102;2023-02-14T02:24:19;99857.25;;;2.87;100.00
13661;BME280;6903;49.480;11.102;2023-02-14T02:27:08;99853.13;;;2.77;100.00
13661;BME280;6903;49.480;11.102;2023-02-14T02:29:59;99843.63;;;2.73;100.00
13661;BME280;6903;49.480;11.102;2023-02-14T02:33:01;99855.84;;;2.69;100.00
13661;BME280;6903;49.480;11.102;2023-02-14T02:41:25;99850.69;;;2.66;100.00
13661;BME280;6903;49.480;11.102;2023-02-14T02:52:39;99856.50;;;2.80;100.00
13661;BME280;6903;49.480;11.102;2023-02-14T02:55:34;99858.22;;;2.83;100.00
13661;BME280;6903;49.480;11.102;2023-02-14T02:58:23;99856.50;;;2.80;100.00
13661;BME280;6903;49.480;11.102;2023-02-14T03:00:51;99852.13;;;2.84;100.00
13661;BME280;6903;49.480;11.102;2023-02-14T03:03:20;99846.88;;;2.85;100.00
13661;BME280;6903;49.480;11.102;2023-02-14T03:06:07;99853.78;;;2.88;100.00
13661;BME280;6903;49.480;11.102;2023-02-14T03:08:33;99850.34;;;2.86;100.00
13661;BME280;6903;49.480;11.102;2023-02-14T03:10:59;99849.72;;;2.73;100.00
13661;BME280;6903;49.480;11.102;2023-02-14T03:17:11;99853.97;;;2.77;100.00
13661;BME280;6903;49.480;11.102;2023-02-14T03:22:55;99860.06;;;2.78;100.00
13661;BME280;6903;49.480;11.102;2023-02-14T03:25:40;99864.78;;;2.55;100.00
13661;BME280;6903;49.480;11.102;2023-02-14T03:28:19;99855.28;;;2.54;100.00
13661;BME280;6903;49.480;11.102;2023-02-14T03:30:57;99857.78;;;2.58;100.00
13661;BME280;6903;49.480;11.102;2023-02-14T03:33:35;99858.00;;;2.48;100.00
13661;BME280;6903;49.480;11.102;2023-02-14T03:36:30;99858.81;;;2.50;100.00
13661;BME280;6903;49.480;11.102;2023-02-14T03:39:17;99867.56;;;2.46;100.00
13661;BME280;6903;49.480;11.102;2023-02-14T03:42:22;99868.34;;;2.51;100.00
13661;BME280;6903;49.480;11.102;2023-02-14T03:44:51;99857.84;;;2.55;100.00
13661;BME280;6903;49.480;11.102;2023-02-14T03:47:22;99858.66;;;2.59;100.00
13661;BME280;6903;49.480;11.102;2023-02-14T03:50:06;99856.94;;;2.56;100.00
13661;BME280;6903;49.480;11.102;2023-02-14T03:52:34;99845.88;;;2.44;100.00
13661;BME280;6903;49.480;11.102;2023-02-14T03:55:02;99847.63;;;2.43;100.00
13661;BME280;6903;49.480;11.102;2023-02-14T03:57:46;99855.53;;;2.39;100.00
13661;BME280;6903;49.480;11.102;2023-02-14T04:00:14;99848.66;;;2.35;100.00
13661;BME280;6903;49.480;11.102;2023-02-14T04:02:53;99852.22;;;2.29;100.00
13661;BME280;6903;49.480;11.102;2023-02-14T04:05:25;99861.00;;;2.24;100.00
13661;BME280;6903;49.480;11.102;2023-02-14T04:07:53;99854.16;;;2.17;100.00
13661;BME280;6903;49.480;11.102;2023-02-14T04:10:19;99857.66;;;2.16;100.00
13661;BME280;6903;49.480;11.102;2023-02-14T04:12:45;99850.75;;;2.12;100.00
13661;BME280;6903;49.480;11.102;2023-02-14T04:15:11;99862.88;;;2.13;100.00
13661;BME280;6903;49.480;11.102;2023-02-14T04:17:37;99861.97;;;2.17;100.00
13661;BME280;6903;49.480;11.102;2023-02-14T04:20:21;99859.34;;;2.17;100.00
13661;BME280;6903;49.480;11.102;2023-02-14T04:22:47;99865.34;;;2.22;100.00
13661;BME280;6903;49.480;11.102;2023-02-14T04:25:13;99855.72;;;2.27;100.00
13661;BME280;6903;49.480;11.102;2023-02-14T04:27:39;99860.03;;;2.29;100.00
13661;BME280;6903;49.480;11.102;2023-02-14T04:30:05;99851.31;;;2.32;100.00
13661;BME280;6903;49.480;11.102;2023-02-14T04:32:31;99853.16;;;2.25;100.00
13661;BME280;6903;49.480;11.102;2023-02-14T04:34:56;99850.66;;;2.18;100.00
13661;BME280;6903;49.480;11.102;2023-02-14T04:37:22;99850.66;;;2.18;100.00
13661;BME280;6903;49.480;11.102;2023-02-14T04:39:47;99842.00;;;2.19;100.00
13661;BME280;6903;49.480;11.102;2023-02-14T04:42:13;99844.59;;;2.19;100.00
13661;BME280;6903;49.480;11.102;2023-02-14T04:44:38;99838.44;;;2.23;100.00
13661;BME280;6903;49.480;11.102;2023-02-14T04:47:04;99835.72;;;2.29;100.00
13661;BME280;6903;49.480;11.102;2023-02-14T04:49:30;99831.31;;;2.34;100.00
13661;BME280;6903;49.480;11.102;2023-02-14T04:51:56;99830.38;;;2.38;100.00
13661;BME280;6903;49.480;11.102;2023-02-14T04:54:21;99837.34;;;2.36;100.00
13661;BME280;6903;49.480;11.102;2023-02-14T04:56:46;99826.03;;;2.40;100.00
13661;BME280;6903;49.480;11.102;2023-02-14T04:59:12;99823.56;;;2.31;100.00
13661;BME280;6903;49.480;11.102;2023-02-14T05:01:38;99832.31;;;2.27;100.00
13661;BME280;6903;49.480;11.102;2023-02-14T05:04:04;99830.72;;;2.18;100.00
13661;BME280;6903;49.480;11.102;2023-02-14T05:06:29;99834.34;;;2.07;100.00
13661;BME280;6903;49.480;11.102;2023-02-14T05:08:55;99828.28;;;2.08;100.00
13661;BME280;6903;49.480;11.102;2023-02-14T05:11:21;99827.44;;;2.06;100.00
13661;BME280;6903;49.480;11.102;2023-02-14T05:13:46;99828.28;;;2.08;100.00
13661;BME280;6903;49.480;11.102;2023-02-14T05:16:11;99822.16;;;2.10;100.00
13661;BME280;6903;49.480;11.102;2023-02-14T05:18:37;99822.16;;;2.10;100.00
13661;BME280;6903;49.480;11.102;2023-02-14T05:21:02;99831.69;;;2.10;100.00
13661;BME280;6903;49.480;11.102;2023-02-14T05:23:28;99835.31;;;2.03;100.00
13661;BME280;6903;49.480;11.102;2023-02-14T05:25:53;99831.91;;;1.98;100.00
13661;BME280;6903;49.480;11.102;2023-02-14T05:28:18;99827.56;;;2.00;100.00
13661;BME280;6903;49.480;11.102;2023-02-14T05:30:44;99824.94;;;1.98;100.00
13661;BME280;6903;49.480;11.102;2023-02-14T05:33:09;99824.94;;;2.01;100.00
13661;BME280;6903;49.480;11.102;2023-02-14T05:35:35;99819.81;;;1.94;100.00
13661;BME280;6903;49.480;11.102;2023-02-14T05:38:00;99824.13;;;1.96;100.00
13661;BME280;6903;49.480;11.102;2023-02-14T05:40:26;99819.81;;;1.94;100.00
13661;BME280;6903;49.480;11.102;2023-02-14T05:42:52;99816.34;;;1.95;100.00
13661;BME280;6903;49.480;11.102;2023-02-14T05:45:18;99819.81;;;1.94;100.00
13661;BME280;6903;49.480;11.102;2023-02-14T05:47:44;99820.72;;;1.93;100.00
13661;BME280;6903;49.480;11.102;2023-02-14T05:50:10;99816.38;;;1.92;100.00
13661;BME280;6903;49.480;11.102;2023-02-14T05:52:36;99821.47;;;2.01;100.00
13661;BME280;6903;49.480;11.102;2023-02-14T05:55:02;99820.47;;;2.09;100.00
13661;BME280;6903;49.480;11.102;2023-02-14T05:57:27;99816.09;;;2.10;100.00
13661;BME280;6903;49.480;11.102;2023-02-14T05:59:53;99816.22;;;2.02;100.00
13661;BME280;6903;49.480;11.102;2023-02-14T06:02:18;99812.72;;;2.03;100.00
13661;BME280;6903;49.480;11.102;2023-02-14T06:04:43;99809.25;;;2.04;100.00
13661;BME280;6903;49.480;11.102;2023-02-14T06:07:09;99807.44;;;2.09;100.00
13661;BME280;6903;49.480;11.102;2023-02-14T06:09:34;99807.38;;;2.14;100.00
13661;BME280;6903;49.480;11.102;2023-02-14T06:11:59;99816.88;;;2.15;100.00
13661;BME280;6903;49.480;11.102;2023-02-14T06:14:25;99802.13;;;2.15;100.00
13661;BME280;6903;49.480;11.102;2023-02-14T06:16:50;99812.56;;;2.14;100.00
13661;BME280;6903;49.480;11.102;2023-02-14T06:19:16;99812.66;;;2.09;100.00
13661;BME280;6903;49.480;11.102;2023-02-14T06:21:41;99811.84;;;2.06;100.00
13661;BME280;6903;49.480;11.102;2023-02-14T06:24:06;99820.59;;;2.00;100.00
13661;BME280;6903;49.480;11.102;2023-02-14T06:26:31;99814.63;;;1.94;100.00
13661;BME280;6903;49.480;11.102;2023-02-14T06:29:00;99817.28;;;1.89;100.00
13661;BME280;6903;49.480;11.102;2023-02-14T06:31:25;99819.03;;;1.89;100.00
13661;BME280;6903;49.480;11.102;2023-02-14T06:33:51;99823.38;;;1.88;100.00
13661;BME280;6903;49.480;11.102;2023-02-14T06:36:17;99827.66;;;1.92;100.00
13661;BME280;6903;49.480;11.102;2023-02-14T06:38:43;99829.31;;;1.98;100.00
13661;BME280;6903;49.480;11.102;2023-02-14T06:41:09;99828.34;;;2.03;100.00
13661;BME280;6903;49.480;11.102;2023-02-14T06:43:36;99832.63;;;2.07;100.00
13661;BME280;6903;49.480;11.102;2023-02-14T06:46:01;99842.13;;;2.10;100.00
13661;BME280;6903;49.480;11.102;2023-02-14T06:48:27;99840.41;;;2.09;100.00
13661;BME280;6903;49.480;11.102;2023-02-14T06:50:52;99837.69;;;2.15;100.00
13661;BME280;6903;49.480;11.102;2023-02-14T06:53:18;99831.63;;;2.16;100.00
13661;BME280;6903;49.480;11.102;2023-02-14T06:55:44;99840.44;;;2.07;100.00
13661;BME280;6903;49.480;11.102;2023-02-14T06:58:09;99841.44;;;1.99;100.00
13661;BME280;6903;49.480;11.102;2023-02-14T07:00:35;99837.16;;;1.95;100.00
13661;BME280;6903;49.480;11.102;2023-02-14T07:03:00;99833.69;;;1.94;100.00
13661;BME280;6903;49.480;11.102;2023-02-14T07:05:25;99830.16;;;1.97;100.00
13661;BME280;6903;49.480;11.102;2023-02-14T07:07:51;99833.63;;;1.99;100.00
13661;BME280;6903;49.480;11.102;2023-02-14T07:10:16;99828.34;;;2.03;100.00
13661;BME280;6903;49.480;11.102;2023-02-14T07:12:41;99834.31;;;2.10;100.00
13661;BME280;6903;49.480;11.102;2023-02-14T07:15:09;99832.56;;;2.10;100.00
13661;BME280;6903;49.480;11.102;2023-02-14T07:17:34;99832.56;;;2.10;100.00
13661;BME280;6903;49.480;11.102;2023-02-14T07:20:00;99831.59;;;2.17;100.00
13661;BME280;6903;49.480;11.102;2023-02-14T07:22:25;99829.78;;;2.21;100.00
13661;BME280;6903;49.480;11.102;2023-02-14T07:24:51;99835.69;;;2.32;100.00
13661;BME280;6903;49.480;11.102;2023-02-14T07:27:16;99838.22;;;2.36;100.00
13661;BME280;6903;49.480;11.102;2023-02-14T07:29:41;99835.44;;;2.45;100.00
13661;BME280;6903;49.480;11.102;2023-02-14T07:32:07;99832.94;;;2.41;100.00
13661;BME280;6903;49.480;11.102;2023-02-14T07:34:32;99837.22;;;2.43;100.00
13661;BME280;6903;49.480;11.102;2023-02-14T07:36:57;99833.84;;;2.37;100.00
13661;BME280;6903;49.480;11.102;2023-02-14T07:39:23;99827.91;;;2.29;100.00
13661;BME280;6903;49.480;11.102;2023-02-14T07:41:48;99832.41;;;2.19;100.00
13661;BME280;6903;49.480;11.102;2023-02-14T07:44:13;99829.06;;;2.13;100.00
13661;BME280;6903;49.480;11.102;2023-02-14T07:46:39;99828.28;;;2.06;100.00
13661;BME280;6903;49.480;11.102;2023-02-14T07:49:04;99825.69;;;2.08;100.00
13661;BME280;6903;49.480;11.102;2023-02-14T07:51:30;99825.59;;;2.14;100.00
13661;BME280;6903;49.480;11.102;2023-02-14T07:53:55;99818.66;;;2.13;100.00
13661;BME280;6903;49.480;11.102;2023-02-14T07:56:20;99826.66;;;2.01;100.00
13661;BME280;6903;49.480;11.102;2023-02-14T07:58:46;99823.25;;;1.97;100.00
13661;BME280;6903;49.480;11.102;2023-02-14T08:01:11;99818.03;;;1.97;100.00
13661;BME280;6903;49.480;11.102;2023-02-14T08:03:36;99823.03;;;2.11;100.00
13661;BME280;6903;49.480;11.102;2023-02-14T08:06:02;99814.22;;;2.18;100.00
13661;BME280;6903;49.480;11.102;2023-02-14T08:08:29;99817.72;;;2.17;100.00
13661;BME280;6903;49.480;11.102;2023-02-14T08:10:55;99826.38;;;2.19;100.00
13661;BME280;6903;49.480;11.102;2023-02-14T08:13:20;99823.66;;;2.25;100.00
13661;BME280;6903;49.480;11.102;2023-02-14T08:15:46;99819.19;;;2.33;100.00
13661;BME280;6903;49.480;11.102;2023-02-14T08:18:34;99816.53;;;2.36;100.00
13661;BME280;6903;49.480;11.102;2023-02-14T08:21:00;99812.22;;;2.35;100.00
13661;BME280;6903;49.480;11.102;2023-02-14T08:23:26;99814.78;;;2.38;100.00
13661;BME280;6903;49.480;11.102;2023-02-14T08:25:52;99807.69;;;2.46;100.00
13661;BME280;6903;49.480;11.102;2023-02-14T08:28:18;99809.31;;;2.51;100.00
13661;BME280;6903;49.480;11.102;2023-02-14T08:30:44;99809.13;;;2.62;100.00
13661;BME280;6903;49.480;11.102;2023-02-14T08:33:09;99806.25;;;2.75;100.00
13661;BME280;6903;49.480;11.102;2023-02-14T08:35:35;99814.78;;;2.85;100.00
13661;BME280;6903;49.480;11.102;2023-02-14T08:38:01;99813.66;;;2.97;100.00
13661;BME280;6903;49.480;11.102;2023-02-14T08:40:27;99820.50;;;3.02;100.00
13661;BME280;6903;49.480;11.102;2023-02-14T08:42:52;99813.88;;;2.86;100.00
13661;BME280;6903;49.480;11.102;2023-02-14T08:45:18;99811.22;;;2.89;100.00
13661;BME280;6903;49.480;11.102;2023-02-14T08:47:43;99813.91;;;2.84;100.00
13661;BME280;6903;49.480;11.102;2023-02-14T08:50:11;99818.66;;;2.63;100.00
13661;BME280;6903;49.480;11.102;2023-02-14T08:52:40;99815.16;;;2.64;100.00
13661;BME280;6903;49.480;11.102;2023-02-14T08:55:08;99808.84;;;2.75;100.00
13661;BME280;6903;49.480;11.102;2023-02-14T08:57:34;99814.13;;;2.72;100.00
13661;BME280;6903;49.480;11.102;2023-02-14T08:59:59;99805.28;;;2.81;100.00
13661;BME280;6903;49.480;11.102;2023-02-14T09:02:24;99799.38;;;2.73;100.00
13661;BME280;6903;49.480;11.102;2023-02-14T09:04:50;99806.41;;;2.68;100.00
13661;BME280;6903;49.480;11.102;2023-02-14T09:07:15;99799.31;;;2.76;100.00
13661;BME280;6903;49.480;11.102;2023-02-14T09:09:40;99798.34;;;2.81;100.00
13661;BME280;6903;49.480;11.102;2023-02-14T09:12:07;99795.72;;;2.81;100.00
13661;BME280;6903;49.480;11.102;2023-02-14T09:14:38;99797.41;;;2.84;100.00
13661;BME280;6903;49.480;11.102;2023-02-14T09:17:03;99796.66;;;2.77;100.00
13661;BME280;6903;49.480;11.102;2023-02-14T09:19:31;99797.41;;;2.84;100.00
13661;BME280;6903;49.480;11.102;2023-02-14T09:21:57;99804.09;;;2.97;100.00
13661;BME280;6903;49.480;11.102;2023-02-14T09:24:22;99794.44;;;3.02;100.00
13661;BME280;6903;49.480;11.102;2023-02-14T09:26:47;99791.72;;;3.08;100.00
13661;BME280;6903;49.480;11.102;2023-02-14T09:29:13;99788.25;;;3.09;100.00
13661;BME280;6903;49.480;11.102;2023-02-14T09:31:40;99785.69;;;3.05;100.00
13661;BME280;6903;49.480;11.102;2023-02-14T09:34:05;99791.72;;;3.08;100.00
13661;BME280;6903;49.480;11.102;2023-02-14T09:36:49;99794.16;;;3.17;100.00
13661;BME280;6903;49.480;11.102;2023-02-14T09:39:14;99784.53;;;3.19;100.00
13661;BME280;6903;49.480;11.102;2023-02-14T09:42:07;99790.44;;;3.27;100.00
13661;BME280;6903;49.480;11.102;2023-02-14T09:44:56;99783.50;;;3.26;100.00
13661;BME280;6903;49.480;11.102;2023-02-14T09:47:43;99789.34;;;3.37;100.00
13661;BME280;6903;49.480;11.102;2023-02-14T09:50:25;99785.75;;;3.44;100.00
13661;BME280;6903;49.480;11.102;2023-02-14T09:52:55;99786.44;;;3.52;100.00
13661;BME280;6903;49.480;11.102;2023-02-14T09:55:22;99790.88;;;3.47;100.00
13661;BME280;6903;49.480;11.102;2023-02-14T09:57:57;99780.19;;;3.58;100.00
13661;BME280;6903;49.480;11.102;2023-02-14T10:00:47;99788.03;;;3.58;100.00
13661;BME280;6903;49.480;11.102;2023-02-14T10:03:30;99788.66;;;3.67;100.00
13661;BME280;6903;49.480;11.102;2023-02-14T10:06:22;99797.41;;;3.66;100.00
13661;BME280;6903;49.480;11.102;2023-02-14T10:11:44;99790.34;;;3.71;100.00
13661;BME280;6903;49.480;11.102;2023-02-14T10:14:14;99792.69;;;3.82;100.00
13661;BME280;6903;49.480;11.102;2023-02-14T10:17:03;99798.41;;;3.97;100.00
13661;BME280;6903;49.480;11.102;2023-02-14T10:19:38;99784.84;;;4.18;100.00
13661;BME280;6903;49.480;11.102;2023-02-14T10:22:12;99783.81;;;4.24;100.00
13661;BME280;6903;49.480;11.102;2023-02-14T10:24:45;99779.72;;;4.15;100.00
13661;BME280;6903;49.480;11.102;2023-02-14T10:29:47;99771.53;;;3.94;100.00
13661;BME280;6903;49.480;11.102;2023-02-14T10:32:14;99776.63;;;3.98;100.00
13661;BME280;6903;49.480;11.102;2023-02-14T10:34:49;99777.66;;;3.93;100.00
13661;BME280;6903;49.480;11.102;2023-02-14T10:37:39;99771.59;;;3.91;100.00
13661;BME280;6903;49.480;11.102;2023-02-14T10:43:28;99777.72;;;4.59;100.00
13661;BME280;6903;49.480;11.102;2023-02-14T10:46:26;99767.69;;;4.42;100.00
13661;BME280;6903;49.480;11.102;2023-02-14T10:51:56;99756.25;;;5.09;100.00
13661;BME280;6903;49.480;11.102;2023-02-14T10:54:33;99759.03;;;5.32;100.00
13661;BME280;6903;49.480;11.102;2023-02-14T10:59:45;99752.78;;;5.37;100.00
13661;BME280;6903;49.480;11.102;2023-02-14T11:02:15;99754.91;;;5.54;100.00
13661;BME280;6903;49.480;11.102;2023-02-14T11:04:41;99752.31;;;5.25;100.00
13661;BME280;6903;49.480;11.102;2023-02-14T11:07:14;99754.19;;;5.20;100.00
13661;BME280;6903;49.480;11.102;2023-02-14T11:09:40;99752.97;;;5.02;100.00
13661;BME280;6903;49.480;11.102;2023-02-14T11:12:06;99737.06;;;4.79;100.00
13661;BME280;6903;49.480;11.102;2023-02-14T11:14:37;99745.50;;;4.89;100.00
13661;BME280;6903;49.480;11.102;2023-02-14T11:17:26;99738.69;;;5.14;100.00
13661;BME280;6903;49.480;11.102;2023-02-14T11:20:00;99744.44;;;5.25;100.00
13661;BME280;6903;49.480;11.102;2023-02-14T11:22:31;99741.59;;;5.32;100.00
13661;BME280;6903;49.480;11.102;2023-02-14T11:25:05;99738.34;;;5.24;100.00
13661;BME280;6903;49.480;11.102;2023-02-14T11:27:31;99735.34;;;5.36;100.00
13661;BME280;6903;49.480;11.102;2023-02-14T11:29:57;99733.16;;;5.52;100.00
13661;BME280;6903;49.480;11.102;2023-02-14T11:32:28;99726.31;;;5.74;100.00
13661;BME280;6903;49.480;11.102;2023-02-14T11:34:59;99723.16;;;5.92;100.00
13661;BME280;6903;49.480;11.102;2023-02-14T11:37:28;99724.03;;;6.17;100.00
13661;BME280;6903;49.480;11.102;2023-02-14T11:39:57;99716.88;;;6.22;100.00
13661;BME280;6903;49.480;11.102;2023-02-14T11:42:39;99718.66;;;6.46;100.00
13661;BME280;6903;49.480;11.102;2023-02-14T11:45:06;99708.47;;;6.63;100.00
13661;BME280;6903;49.480;11.102;2023-02-14T11:47:33;99712.34;;;6.76;100.00
13661;BME280;6903;49.480;11.102;2023-02-14T11:50:18;99712.75;;;6.89;100.00
13661;BME280;6903;49.480;11.102;2023-02-14T11:52:50;99704.88;;;7.12;100.00
13661;BME280;6903;49.480;11.102;2023-02-14T11:55:31;99708.59;;;7.30;100.00
13661;BME280;6903;49.480;11.102;2023-02-14T11:57:59;99699.75;;;7.09;100.00
13661;BME280;6903;49.480;11.102;2023-02-14T12:00:26;99695.25;;;7.12;100.00
13661;BME280;6903;49.480;11.102;2023-02-14T12:02:52;99695.34;;;7.09;100.00
13661;BME280;6903;49.480;11.102;2023-02-14T12:05:30;99686.19;;;6.98;100.00
13661;BME280;6903;49.480;11.102;2023-02-14T12:07:57;99689.91;;;6.92;100.00
13661;BME280;6903;49.480;11.102;2023-02-14T12:10:26;99682.78;;;6.48;100.00
13661;BME280;6903;49.480;11.102;2023-02-14T12:18:16;99662.41;;;6.56;100.00
13661;BME280;6903;49.480;11.102;2023-02-14T12:23:49;99659.94;;;6.76;100.00
13661;BME280;6903;49.480;11.102;2023-02-14T12:28:55;99654.19;;;6.65;100.00
13661;BME280;6903;49.480;11.102;2023-02-14T12:31:22;99649.50;;;6.75;100.00
13661;BME280;6903;49.480;11.102;2023-02-14T12:33:47;99643.38;;;6.51;100.00
13661;BME280;6903;49.480;11.102;2023-02-14T12:39:31;99640.22;;;6.42;100.00
13661;BME280;6903;49.480;11.102;2023-02-14T12:47:27;99638.84;;;6.79;100.00
13661;BME280;6903;49.480;11.102;2023-02-14T12:58:31;99616.50;;;7.97;100.00
13661;BME280;6903;49.480;11.102;2023-02-14T13:06:33;99611.16;;;7.59;100.00
13661;BME280;6903;49.480;11.102;2023-02-14T13:09:22;99602.16;;;7.22;100.00
13661;BME280;6903;49.480;11.102;2023-02-14T13:15:08;99607.94;;;7.31;100.00
13661;BME280;6903;49.480;11.102;2023-02-14T13:17:46;99601.13;;;7.05;100.00
13661;BME280;6903;49.480;11.102;2023-02-14T13:20:38;99600.13;;;7.07;100.00
13661;BME280;6903;49.480;11.102;2023-02-14T13:23:11;99601.53;;;7.16;100.00
13661;BME280;6903;49.480;11.102;2023-02-14T13:25:44;99595.88;;;7.05;100.00
13661;BME280;6903;49.480;11.102;2023-02-14T13:28:14;99595.50;;;6.92;100.00
13661;BME280;6903;49.480;11.102;2023-02-14T13:30:40;99594.69;;;6.90;100.00
13661;BME280;6903;49.480;11.102;2023-02-14T13:33:32;99591.63;;;6.79;100.00
13661;BME280;6903;49.480;11.102;2023-02-14T13:36:02;99587.06;;;6.84;100.00
13661;BME280;6903;49.480;11.102;2023-02-14T13:38:30;99584.38;;;7.07;100.00
13661;BME280;6903;49.480;11.102;2023-02-14T13:40:57;99582.03;;;7.01;100.00
13661;BME280;6903;49.480;11.102;2023-02-14T13:43:52;99579.84;;;6.91;100.00
13661;BME280;6903;49.480;11.102;2023-02-14T13:46:43;99579.66;;;6.72;100.00
13661;BME280;6903;49.480;11.102;2023-02-14T13:49:31;99574.94;;;6.59;100.00
13661;BME280;6903;49.480;11.102;2023-02-14T13:52:02;99577.63;;;6.57;100.00
13661;BME280;6903;49.480;11.102;2023-02-14T13:57:30;99573.13;;;6.61;100.00
13661;BME280;6903;49.480;11.102;2023-02-14T14:02:46;99567.38;;;6.74;100.00
13661;BME280;6903;49.480;11.102;2023-02-14T14:10:57;99569.50;;;6.86;100.00
13661;BME280;6903;49.480;11.102;2023-02-14T14:21:59;99567.38;;;6.96;100.00
13661;BME280;6903;49.480;11.102;2023-02-14T14:24:32;99561.63;;;6.65;100.00
13661;BME280;6903;49.480;11.102;2023-02-14T14:27:00;99556.56;;;6.37;100.00
13661;BME280;6903;49.480;11.102;2023-02-14T14:29:29;99560.38;;;6.29;100.00
13661;BME280;6903;49.480;11.102;2023-02-14T14:31:55;99558.25;;;6.15;100.00
13661;BME280;6903;49.480;11.102;2023-02-14T14:34:24;99555.66;;;6.15;100.00
13661;BME280;6903;49.480;11.102;2023-02-14T14:37:04;99549.44;;;6.18;100.00
13661;BME280;6903;49.480;11.102;2023-02-14T14:39:32;99546.13;;;6.13;100.00
13661;BME280;6903;49.480;11.102;2023-02-14T14:42:14;99549.38;;;6.19;100.00
13661;BME280;6903;49.480;11.102;2023-02-14T14:44:55;99551.81;;;6.24;100.00
13661;BME280;6903;49.480;11.102;2023-02-14T14:47:24;99546.75;;;6.19;100.00
13661;BME280;6903;49.480;11.102;2023-02-14T14:49:52;99549.25;;;6.22;100.00
13661;BME280;6903;49.480;11.102;2023-02-14T14:52:30;99551.66;;;6.28;100.00